Time;durP1;ratioP1;P1;durP2;ratioP2;P2;SDS_P1;SDS_P2;PMS_P1;PMS_P2;Temp;Humidity;BMP_temperature;BMP_pressure;BME280_temperature;BME280_humidity;BME280_pressure;Samples;Min_cycle;Max_cycle;Signal;HPM_P1;HPM_P2
2022/12/07 00:01:18;;;;;;;;;;;;;;;10.45;67.76;98961.63;4979000;28;19918;-77
2022/12/07 00:03:44;;;;;;;;;;;;;;;10.43;67.26;98962.66;4978678;28;19918;-77
2022/12/07 00:06:10;;;;;;;;;;;;;;;10.41;67.46;98959.34;4978450;28;19918;-80
2022/12/07 00:08:35;;;;;;;;;;;;;;;10.38;67.47;98962.97;4962452;28;19926;-82
2022/12/07 00:11:03;;;;;;;;;;;;;;;10.34;67.31;98966.75;4978752;28;19918;-78
2022/12/07 00:13:29;;;;;;;;;;;;;;;10.30;67.27;98968.72;4995838;28;20451;-77
2022/12/07 00:15:54;;;;;;;;;;;;;;;10.28;67.20;98969.78;4978486;28;19922;-78
2022/12/07 00:18:19;;;;;;;;;;;;;;;10.24;67.08;98969.16;4995789;28;19977;-78
2022/12/07 00:20:44;;;;;;;;;;;;;;;10.21;67.19;98958.09;4995614;28;19918;-78
2022/12/07 00:23:10;;;;;;;;;;;;;;;10.19;67.00;98960.00;4978230;28;20420;-78
2022/12/07 00:25:35;;;;;;;;;;;;;;;10.16;67.05;98960.22;4996061;28;19948;-78
2022/12/07 00:28:00;;;;;;;;;;;;;;;10.13;66.97;98963.88;5002024;28;19918;-78
2022/12/07 00:30:26;;;;;;;;;;;;;;;10.10;67.24;98964.09;4984853;28;19918;-78
2022/12/07 00:32:51;;;;;;;;;;;;;;;10.07;67.04;98959.09;4979258;28;19918;-79
2022/12/07 00:35:16;;;;;;;;;;;;;;;10.05;67.12;98963.59;4978315;28;19926;-79
2022/12/07 00:37:41;;;;;;;;;;;;;;;10.02;66.67;98963.78;4995830;28;19929;-78
2022/12/07 00:40:07;;;;;;;;;;;;;;;10.00;67.01;98966.50;4978527;28;19918;-78
2022/12/07 00:42:32;;;;;;;;;;;;;;;9.98;67.08;98962.34;4996222;28;19918;-78
2022/12/07 00:44:58;;;;;;;;;;;;;;;9.98;66.88;98968.41;4977846;28;19926;-78
2022/12/07 00:47:23;;;;;;;;;;;;;;;9.96;67.09;98963.28;4961989;28;19925;-78
2022/12/07 00:49:48;;;;;;;;;;;;;;;9.95;67.08;98958.19;4978143;28;20008;-78
2022/12/07 00:52:13;;;;;;;;;;;;;;;9.94;67.14;98957.34;4978456;28;20262;-78
2022/12/07 00:54:39;;;;;;;;;;;;;;;9.93;67.13;98960.03;4978100;28;19942;-78
2022/12/07 00:57:04;;;;;;;;;;;;;;;9.92;67.08;98956.63;4995035;28;19952;-79
2022/12/07 00:59:30;;;;;;;;;;;;;;;9.92;67.25;98961.00;4977361;28;19918;-79
2022/12/07 01:01:55;;;;;;;;;;;;;;;9.92;66.87;98961.00;4977790;28;20289;-80
2022/12/07 01:04:20;;;;;;;;;;;;;;;9.91;66.86;98959.31;4961436;28;20376;-78
2022/12/07 01:06:46;;;;;;;;;;;;;;;9.89;66.90;98956.81;4977617;28;19925;-78
2022/12/07 01:09:11;;;;;;;;;;;;;;;9.88;66.80;98951.72;4994942;28;19964;-78
2022/12/07 01:11:36;;;;;;;;;;;;;;;9.88;66.75;98959.53;4994975;28;20048;-79
2022/12/07 01:14:02;;;;;;;;;;;;;;;9.85;66.68;98952.78;4994761;28;19917;-79
2022/12/07 01:16:27;;;;;;;;;;;;;;;9.84;66.75;98950.28;4977402;28;19918;-79
2022/12/07 01:18:53;;;;;;;;;;;;;;;9.82;66.60;98953.00;4977362;28;19996;-79
2022/12/07 01:21:22;;;;;;;;;;;;;;;9.83;66.60;98946.81;4977875;28;19918;-79
2022/12/07 01:23:48;;;;;;;;;;;;;;;9.81;66.51;98943.50;4961119;28;20396;-79
2022/12/07 01:26:17;;;;;;;;;;;;;;;9.80;66.52;98936.59;4977251;28;19951;-80
2022/12/07 01:28:43;;;;;;;;;;;;;;;9.78;66.51;98931.50;4994496;28;19917;-80
2022/12/07 01:31:14;;;;;;;;;;;;;;;9.77;66.63;98942.88;4977204;28;20072;-79
2022/12/07 01:33:39;;;;;;;;;;;;;;;9.74;66.53;98935.28;4977356;28;20084;-79
2022/12/07 01:36:06;;;;;;;;;;;;;;;9.73;66.50;98938.00;4976814;28;20057;-80
2022/12/07 01:38:31;;;;;;;;;;;;;;;9.71;66.60;98930.28;4994318;28;19918;-79
2022/12/07 01:40:57;;;;;;;;;;;;;;;9.69;66.43;98924.31;4977003;28;20016;-80
2022/12/07 01:43:22;;;;;;;;;;;;;;;9.67;66.33;98915.78;4976857;28;19922;-79
2022/12/07 01:45:47;;;;;;;;;;;;;;;9.65;66.27;98909.84;4976845;28;19922;-79
2022/12/07 01:48:13;;;;;;;;;;;;;;;9.64;66.22;98918.59;4976854;28;20380;-79
2022/12/07 01:50:39;;;;;;;;;;;;;;;9.64;66.27;98920.38;4994113;28;19925;-80
2022/12/07 01:53:05;;;;;;;;;;;;;;;9.62;66.31;98922.28;4994208;28;19922;-80
2022/12/07 01:55:30;;;;;;;;;;;;;;;9.61;66.18;98921.41;4976443;28;20020;-80
2022/12/07 01:57:56;;;;;;;;;;;;;;;9.59;66.30;98911.09;4976677;28;20000;-79
2022/12/07 02:00:21;;;;;;;;;;;;;;;9.57;66.27;98902.56;4993855;28;19918;-79
2022/12/07 02:02:48;;;;;;;;;;;;;;;9.57;66.38;98910.38;4960791;28;19918;-80
2022/12/07 02:05:13;;;;;;;;;;;;;;;9.55;66.44;98907.06;4960383;28;20300;-80
2022/12/07 02:07:38;;;;;;;;;;;;;;;9.54;66.59;98907.97;4976377;28;19917;-78
2022/12/07 02:10:20;;;;;;;;;;;;;;;9.55;66.25;98904.44;4976421;28;19976;-79
2022/12/07 02:12:47;;;;;;;;;;;;;;;9.56;66.45;98900.06;4976024;28;20017;-79
2022/12/07 02:15:12;;;;;;;;;;;;;;;9.56;66.39;98906.09;4975920;28;19988;-80
2022/12/07 02:17:41;;;;;;;;;;;;;;;9.56;66.45;98898.28;4994000;28;20373;-80
2022/12/07 02:20:18;;;;;;;;;;;;;;;9.57;66.29;98893.91;4976258;28;19925;-80
2022/12/07 02:23:02;;;;;;;;;;;;;;;9.55;66.36;98894.03;4976612;28;19918;-80
2022/12/07 02:25:27;;;;;;;;;;;;;;;9.57;66.45;98896.53;4993568;28;19918;-80
2022/12/07 02:27:53;;;;;;;;;;;;;;;9.56;66.32;98890.47;4993413;28;20361;-79
2022/12/07 02:30:19;;;;;;;;;;;;;;;9.56;66.25;98895.66;4976225;28;19976;-80
2022/12/07 02:32:55;;;;;;;;;;;;;;;9.56;66.46;98890.47;4976016;28;19924;-79
2022/12/07 02:35:26;;;;;;;;;;;;;;;9.57;66.39;98886.09;4976236;28;20270;-79
2022/12/07 02:37:59;;;;;;;;;;;;;;;9.56;66.50;98893.06;4993428;28;20292;-79
2022/12/07 02:40:24;;;;;;;;;;;;;;;9.57;66.24;98883.50;4976110;28;19918;-79
2022/12/07 02:42:51;;;;;;;;;;;;;;;9.54;66.31;98887.13;4993594;28;19921;-79
2022/12/07 02:45:17;;;;;;;;;;;;;;;9.56;66.30;98889.63;4959967;28;20407;-79
2022/12/07 02:47:43;;;;;;;;;;;;;;;9.55;66.27;98883.59;4975867;28;19918;-79
2022/12/07 02:50:08;;;;;;;;;;;;;;;9.55;66.34;98883.59;4975792;28;19918;-79
2022/12/07 02:52:34;;;;;;;;;;;;;;;9.56;66.41;98882.63;4976187;28;20368;-79
2022/12/07 02:54:59;;;;;;;;;;;;;;;9.56;66.39;98881.81;4975824;28;19976;-77
2022/12/07 02:57:43;;;;;;;;;;;;;;;9.54;66.19;98881.91;4976368;28;20016;-79
2022/12/07 03:00:08;;;;;;;;;;;;;;;9.55;66.27;98881.00;4975930;28;20053;-77
2022/12/07 03:02:37;;;;;;;;;;;;;;;9.56;66.15;98889.63;4993248;28;20380;-79
2022/12/07 03:05:09;;;;;;;;;;;;;;;9.54;66.30;98881.91;4975857;28;20312;-77
2022/12/07 03:07:34;;;;;;;;;;;;;;;9.55;66.26;98882.75;4959861;28;19918;-77
2022/12/07 03:10:02;;;;;;;;;;;;;;;9.55;66.36;98873.19;4993134;28;19918;-79
2022/12/07 03:12:36;;;;;;;;;;;;;;;9.56;66.29;98885.25;4993540;28;19917;-81
2022/12/07 03:15:06;;;;;;;;;;;;;;;9.57;66.22;98873.06;4993056;28;19941;-78
2022/12/07 03:17:32;;;;;;;;;;;;;;;9.57;66.30;98873.88;4959817;28;19941;-79
2022/12/07 03:19:58;;;;;;;;;;;;;;;9.58;66.24;98877.31;4959469;28;20397;-80
2022/12/07 03:22:23;;;;;;;;;;;;;;;9.58;66.27;98878.19;4976894;28;19917;-80
2022/12/07 03:24:52;;;;;;;;;;;;;;;9.59;66.13;98879.81;4979484;28;19977;-79
2022/12/07 03:27:21;;;;;;;;;;;;;;;9.59;66.26;98874.59;4980179;28;19918;-80
2022/12/07 03:29:49;;;;;;;;;;;;;;;9.59;66.08;98882.44;4979612;28;19917;-79
2022/12/07 03:32:24;;;;;;;;;;;;;;;9.60;66.07;98883.28;4996926;28;19921;-79
2022/12/07 03:34:51;;;;;;;;;;;;;;;9.61;66.22;98879.72;4996783;28;19936;-79
2022/12/07 03:37:18;;;;;;;;;;;;;;;9.59;66.04;98877.22;4979510;28;19918;-80
2022/12/07 03:39:43;;;;;;;;;;;;;;;9.62;66.20;98880.56;4979382;28;19917;-78
2022/12/07 03:42:09;;;;;;;;;;;;;;;9.61;66.03;98877.09;4996757;28;20381;-79
2022/12/07 03:44:34;;;;;;;;;;;;;;;9.62;66.06;98877.97;4978777;28;19988;-78
2022/12/07 03:47:11;;;;;;;;;;;;;;;9.62;66.05;98875.34;4979099;28;19925;-78
2022/12/07 03:49:49;;;;;;;;;;;;;;;9.63;66.05;98877.84;4997186;28;19917;-79
2022/12/07 03:52:33;;;;;;;;;;;;;;;9.64;66.05;98876.06;4979167;28;19918;-78
2022/12/07 03:55:07;;;;;;;;;;;;;;;9.64;66.04;98881.28;4990616;28;19981;-79
2022/12/07 03:57:33;;;;;;;;;;;;;;;9.62;66.02;98878.78;5006436;28;19925;-78
2022/12/07 03:59:58;;;;;;;;;;;;;;;9.63;66.11;98877.00;5000608;28;19918;-79
2022/12/07 04:02:24;;;;;;;;;;;;;;;9.64;66.14;98876.06;4996549;28;19918;-79
2022/12/07 04:04:49;;;;;;;;;;;;;;;9.63;66.06;98870.03;4978673;28;19979;-78
2022/12/07 04:07:14;;;;;;;;;;;;;;;9.65;66.00;98875.13;4996204;28;19930;-78
2022/12/07 04:09:39;;;;;;;;;;;;;;;9.64;66.04;98871.69;4962668;28;19918;-79
2022/12/07 04:12:05;;;;;;;;;;;;;;;9.64;65.90;98871.69;4978768;28;19924;-80
2022/12/07 04:14:30;;;;;;;;;;;;;;;9.64;65.91;98861.25;4996068;28;20380;-79
2022/12/07 04:16:59;;;;;;;;;;;;;;;9.63;65.98;98870.03;4978593;28;19918;-79
2022/12/07 04:19:28;;;;;;;;;;;;;;;9.64;65.93;98865.66;4978969;28;19925;-78
2022/12/07 04:21:54;;;;;;;;;;;;;;;9.64;65.91;98865.66;4995537;28;20377;-77
2022/12/07 04:24:19;;;;;;;;;;;;;;;9.63;65.94;98856.16;4995824;28;20021;-77
2022/12/07 04:26:44;;;;;;;;;;;;;;;9.64;65.90;98856.03;4979173;28;19918;-77
2022/12/07 04:29:10;;;;;;;;;;;;;;;9.64;66.00;98852.63;4995410;28;19924;-78
2022/12/07 04:31:35;;;;;;;;;;;;;;;9.63;65.96;98849.19;4978566;28;19918;-83
2022/12/07 04:34:01;;;;;;;;;;;;;;;9.63;65.92;98854.41;4995062;28;19922;-79
2022/12/07 04:36:26;;;;;;;;;;;;;;;9.63;65.78;98853.53;4978662;28;19918;-86
2022/12/07 04:38:55;;;;;;;;;;;;;;;9.63;65.90;98856.16;4978349;28;19918;-87
2022/12/07 04:41:26;;;;;;;;;;;;;;;9.63;65.78;98861.38;4978433;28;19972;-81
2022/12/07 04:43:52;;;;;;;;;;;;;;;9.65;67.08;98860.31;4995035;28;19921;-79
2022/12/07 04:46:18;;;;;;;;;;;;;;;9.67;66.80;98868.84;4958008;28;19926;-79
2022/12/07 04:48:43;;;;;;;;;;;;;;;9.72;68.17;98868.53;4959225;28;19925;-80
2022/12/07 04:51:09;;;;;;;;;;;;;;;9.79;70.16;98872.38;4957411;28;19918;-81
2022/12/07 04:53:35;;;;;;;;;;;;;;;9.82;69.19;98872.19;4958677;28;19922;-80
2022/12/07 04:56:01;;;;;;;;;;;;;;;9.82;68.31;98861.75;4958721;28;19918;-87
2022/12/07 04:58:27;;;;;;;;;;;;;;;9.82;68.10;98860.88;4966649;28;19953;-80
2022/12/07 05:00:53;;;;;;;;;;;;;;;9.81;67.85;98864.47;4966850;28;19918;-85
2022/12/07 05:03:19;;;;;;;;;;;;;;;9.80;67.58;98866.22;4959340;28;19918;-86
2022/12/07 05:05:44;;;;;;;;;;;;;;;9.83;68.65;98866.00;4975438;28;19922;-78
2022/12/07 05:08:10;;;;;;;;;;;;;;;9.84;67.98;98867.69;4976350;28;19925;-81
2022/12/07 05:10:35;;;;;;;;;;;;;;;10.09;74.47;98860.72;4962071;28;19922;-83
2022/12/07 05:13:00;;;;;;;;;;;;;;;10.25;72.81;98863.03;4981767;28;19918;-80
2022/12/07 05:15:26;;;;;;;;;;;;;;;10.24;71.34;98859.56;4942059;28;20300;-82
2022/12/07 05:17:52;;;;;;;;;;;;;;;10.20;70.59;98865.13;4958561;28;20077;-78
2022/12/07 05:20:17;;;;;;;;;;;;;;;10.16;70.09;98858.47;4958114;28;19949;-78
2022/12/07 05:22:42;;;;;;;;;;;;;;;10.11;69.99;98864.84;4975423;28;19925;-79
2022/12/07 05:25:08;;;;;;;;;;;;;;;10.04;70.09;98861.03;4988099;28;20402;-79
2022/12/07 05:27:33;;;;;;;;;;;;;;;9.99;69.97;98860.50;4994646;28;19918;-81
2022/12/07 05:29:58;;;;;;;;;;;;;;;10.05;72.41;98864.47;4994330;28;20006;-80
2022/12/07 05:32:24;;;;;;;;;;;;;;;10.09;72.00;98860.72;4994530;28;19924;-82
2022/12/07 05:34:49;;;;;;;;;;;;;;;10.10;70.96;98858.00;4960912;28;19984;-77
2022/12/07 05:37:14;;;;;;;;;;;;;;;10.12;70.38;98865.69;4994185;28;19929;-82
2022/12/07 05:39:42;;;;;;;;;;;;;;;10.13;70.09;98862.97;4960825;28;19918;-78
2022/12/07 05:42:14;;;;;;;;;;;;;;;10.14;69.54;98869.84;4994459;28;19925;-82
2022/12/07 05:44:43;;;;;;;;;;;;;;;10.13;69.29;98862.97;4977684;28;20024;-81
2022/12/07 05:47:09;;;;;;;;;;;;;;;10.14;69.03;98861.19;4960159;28;19918;-83
2022/12/07 05:49:34;;;;;;;;;;;;;;;10.14;69.05;98862.03;4975809;28;20372;-83
2022/12/07 05:51:59;;;;;;;;;;;;;;;10.14;68.59;98869.84;4994265;28;19925;-80
2022/12/07 05:54:25;;;;;;;;;;;;;;;10.13;68.75;98873.41;4976105;28;19929;-79
2022/12/07 05:56:50;;;;;;;;;;;;;;;10.19;71.00;98868.69;4993904;28;19976;-77
2022/12/07 05:59:26;;;;;;;;;;;;;;;10.29;71.43;98872.28;4994090;28;20011;-80
2022/12/07 06:01:57;;;;;;;;;;;;;;;10.30;70.17;98873.97;4993313;28;19933;-80
2022/12/07 06:04:23;;;;;;;;;;;;;;;10.31;69.46;98875.63;4959028;28;20316;-81
2022/12/07 06:06:48;;;;;;;;;;;;;;;10.30;69.03;98874.78;4960089;28;19918;-81
2022/12/07 06:09:14;;;;;;;;;;;;;;;10.30;68.74;98879.19;4976592;28;19925;-81
2022/12/07 06:14:23;;;;;;;;;;;;;;;10.32;68.38;98877.28;4979586;28;19924;-80
2022/12/07 06:16:49;;;;;;;;;;;;;;;10.36;68.08;98884.00;4994122;28;19918;-79
2022/12/07 06:19:14;;;;;;;;;;;;;;;10.40;67.58;98881.97;4976001;28;20169;-80
2022/12/07 06:21:39;;;;;;;;;;;;;;;10.43;67.61;98879.16;4994112;28;20009;-79
2022/12/07 06:24:05;;;;;;;;;;;;;;;10.48;67.31;98877.88;4994167;28;19926;-81
2022/12/07 06:26:30;;;;;;;;;;;;;;;10.54;67.11;98870.53;4976708;28;19973;-81
2022/12/07 06:28:56;;;;;;;;;;;;;;;10.57;66.70;98878.97;4960349;28;19921;-81
2022/12/07 06:31:21;;;;;;;;;;;;;;;10.64;66.59;98885.41;4976886;28;19917;-81
2022/12/07 06:33:46;;;;;;;;;;;;;;;10.67;66.24;98879.09;4994386;28;19998;-80
2022/12/07 06:36:12;;;;;;;;;;;;;;;10.71;66.08;98879.72;4993939;28;19925;-81
2022/12/07 06:38:37;;;;;;;;;;;;;;;10.73;66.31;98878.66;4994301;28;19918;-81
2022/12/07 06:41:02;;;;;;;;;;;;;;;10.77;65.94;98880.09;4994182;28;19925;-80
2022/12/07 06:43:28;;;;;;;;;;;;;;;10.83;65.80;98878.78;4959962;28;19922;-81
2022/12/07 06:45:53;;;;;;;;;;;;;;;10.86;65.51;98875.94;4959936;28;19929;-81
2022/12/07 06:48:18;;;;;;;;;;;;;;;10.89;65.56;98877.50;4993586;28;20056;-81
2022/12/07 06:50:44;;;;;;;;;;;;;;;10.91;65.20;98881.69;4976551;28;19918;-81
2022/12/07 06:53:10;;;;;;;;;;;;;;;10.95;65.12;98885.69;4976368;28;19918;-82
2022/12/07 06:55:35;;;;;;;;;;;;;;;11.00;65.03;98880.97;4976221;28;20024;-82
2022/12/07 06:58:01;;;;;;;;;;;;;;;11.06;65.00;98878.84;4962139;28;20350;-81
2022/12/07 07:00:26;;;;;;;;;;;;;;;11.10;64.80;98877.66;4980236;28;19941;-80
2022/12/07 07:02:52;;;;;;;;;;;;;;;11.15;64.41;98878.97;4964430;28;20387;-79
2022/12/07 07:05:17;;;;;;;;;;;;;;;11.21;64.46;98878.50;4964140;28;19924;-79
2022/12/07 07:07:42;;;;;;;;;;;;;;;11.28;63.95;98876.25;4964363;28;20466;-81
2022/12/07 07:10:08;;;;;;;;;;;;;;;11.32;63.95;98882.06;4998109;28;19918;-79
2022/12/07 07:12:33;;;;;;;;;;;;;;;11.37;63.78;98879.94;4963947;28;19918;-80
2022/12/07 07:14:59;;;;;;;;;;;;;;;11.42;63.54;98880.41;4963764;28;19961;-82
2022/12/07 07:17:24;;;;;;;;;;;;;;;11.48;63.40;98872.09;4979521;28;20460;-80
2022/12/07 07:19:49;;;;;;;;;;;;;;;11.54;63.17;98874.25;4964733;28;20299;-81
2022/12/07 07:22:14;;;;;;;;;;;;;;;11.61;62.81;98877.19;4968622;28;20316;-79
2022/12/07 07:24:40;;;;;;;;;;;;;;;11.71;62.49;98877.31;4983028;28;20372;-81
2022/12/07 07:27:05;;;;;;;;;;;;;;;11.80;62.40;98875.72;4982283;28;20393;-81
2022/12/07 07:29:31;;;;;;;;;;;;;;;11.91;62.08;98879.16;4980117;28;20369;-82
2022/12/07 07:31:56;;;;;;;;;;;;;;;12.07;61.80;98881.44;4963712;28;20368;-82
2022/12/07 07:34:21;;;;;;;;;;;;;;;12.28;61.46;98880.66;4979513;28;19918;-80
2022/12/07 07:36:47;;;;;;;;;;;;;;;12.65;60.77;98885.47;4963538;28;19918;-83
2022/12/07 07:39:12;;;;;;;;;;;;;;;13.03;60.33;98892.78;4963581;28;19918;-82
2022/12/07 07:41:38;;;;;;;;;;;;;;;13.36;60.16;98888.31;4979701;28;19918;-81
2022/12/07 07:44:03;;;;;;;;;;;;;;;13.67;59.57;98895.31;4963332;28;20021;-81
2022/12/07 07:46:28;;;;;;;;;;;;;;;13.87;58.66;98901.47;4963301;28;20289;-80
2022/12/07 07:48:54;;;;;;;;;;;;;;;14.02;58.03;98904.53;4963693;28;20372;-82
2022/12/07 07:51:19;;;;;;;;;;;;;;;14.13;57.54;98896.53;4963765;28;20067;-80
2022/12/07 07:53:44;;;;;;;;;;;;;;;14.25;57.03;98890.19;4963372;28;19957;-81
2022/12/07 07:56:10;;;;;;;;;;;;;;;14.44;56.60;98897.25;4978964;28;20300;-81
2022/12/07 07:58:35;;;;;;;;;;;;;;;14.61;56.15;98890.53;4963193;28;20304;-80
2022/12/07 08:01:04;;;;;;;;;;;;;;;14.85;55.64;98889.25;4963026;28;19917;-81
2022/12/07 08:03:30;;;;;;;;;;;;;;;14.90;55.43;98894.91;4978962;28;19917;-81
2022/12/07 08:05:55;;;;;;;;;;;;;;;14.91;55.09;98893.09;4962575;28;19921;-80
2022/12/07 08:08:20;;;;;;;;;;;;;;;14.94;54.73;98898.09;4978632;28;19917;-81
2022/12/07 08:10:46;;;;;;;;;;;;;;;15.08;54.34;98896.81;4978093;28;19918;-83
2022/12/07 08:13:11;;;;;;;;;;;;;;;15.35;53.68;98890.78;4963054;28;19917;-80
2022/12/07 08:15:37;;;;;;;;;;;;;;;15.64;53.14;98888.03;4962469;28;19924;-81
2022/12/07 08:18:02;;;;;;;;;;;;;;;15.98;52.38;98884.84;4963096;28;19918;-81
2022/12/07 08:20:29;;;;;;;;;;;;;;;16.28;51.44;98885.47;4962768;28;19924;-81
2022/12/07 08:22:54;;;;;;;;;;;;;;;16.49;50.74;98886.97;4962411;28;19918;-80
2022/12/07 08:25:20;;;;;;;;;;;;;;;16.67;50.56;98884.31;4962400;28;19949;-80
2022/12/07 08:27:46;;;;;;;;;;;;;;;16.91;49.59;98881.09;4962402;28;19928;-81
2022/12/07 08:30:11;;;;;;;;;;;;;;;17.13;48.82;98883.22;4962175;28;19925;-80
2022/12/07 08:32:36;;;;;;;;;;;;;;;17.34;48.21;98888.09;4962330;28;19918;-80
2022/12/07 08:35:02;;;;;;;;;;;;;;;17.52;47.42;98881.91;4961618;28;19980;-82
2022/12/07 08:37:27;;;;;;;;;;;;;;;17.68;46.67;98889.91;4995951;28;19918;-81
2022/12/07 08:39:54;;;;;;;;;;;;;;;18.01;46.57;98887.44;4978711;28;19957;-80
2022/12/07 08:42:19;;;;;;;;;;;;;;;18.38;45.44;98882.69;4962559;28;20004;-80
2022/12/07 08:44:45;;;;;;;;;;;;;;;18.62;44.94;98887.16;4978213;28;20149;-81
2022/12/07 08:47:10;;;;;;;;;;;;;;;18.88;44.42;98880.91;4978526;28;20315;-80
2022/12/07 08:49:36;;;;;;;;;;;;;;;18.87;44.48;98869.50;4962010;28;19917;-80
2022/12/07 08:52:02;;;;;;;;;;;;;;;18.85;44.28;98866.22;4978168;28;19918;-80
2022/12/07 08:54:27;;;;;;;;;;;;;;;18.90;44.11;98868.34;4978101;28;20351;-79
2022/12/07 08:56:53;;;;;;;;;;;;;;;18.83;43.86;98868.16;4995372;28;19918;-81
2022/12/07 08:59:18;;;;;;;;;;;;;;;18.88;43.55;98855.31;4979161;28;20006;-81
2022/12/07 09:01:43;;;;;;;;;;;;;;;18.98;43.37;98858.56;4961971;28;19918;-80
2022/12/07 09:04:09;;;;;;;;;;;;;;;18.91;43.33;98860.25;4978500;28;19925;-81
2022/12/07 09:06:34;;;;;;;;;;;;;;;18.80;42.95;98852.59;4977853;28;20554;-82
2022/12/07 09:08:59;;;;;;;;;;;;;;;18.65;43.12;98855.13;4978003;28;19922;-81
2022/12/07 09:11:25;;;;;;;;;;;;;;;18.56;43.03;98853.47;4978242;28;19922;-83
2022/12/07 09:13:50;;;;;;;;;;;;;;;18.55;43.05;98849.16;4962548;28;19918;-82
2022/12/07 09:16:15;;;;;;;;;;;;;;;18.53;42.65;98853.78;4962782;28;20368;-81
2022/12/07 09:18:41;;;;;;;;;;;;;;;18.54;42.46;98852.81;4977803;28;19941;-81
2022/12/07 09:21:07;;;;;;;;;;;;;;;18.42;42.49;98845.22;4960989;28;20403;-81
2022/12/07 09:23:32;;;;;;;;;;;;;;;18.31;42.81;98834.97;4977676;28;19917;-82
2022/12/07 09:26:01;;;;;;;;;;;;;;;18.25;42.46;98839.09;4977852;28;19922;-82
2022/12/07 09:28:26;;;;;;;;;;;;;;;18.19;42.78;98828.34;4961529;28;19917;-80
2022/12/07 09:30:51;;;;;;;;;;;;;;;18.22;42.48;98826.19;4977657;28;19924;-82
2022/12/07 09:33:17;;;;;;;;;;;;;;;18.23;42.48;98824.38;4977753;28;20300;-81
2022/12/07 09:35:46;;;;;;;;;;;;;;;18.39;42.19;98824.41;4977674;28;20379;-81
2022/12/07 09:38:11;;;;;;;;;;;;;;;18.39;42.04;98818.25;4977370;28;19917;-80
2022/12/07 09:40:37;;;;;;;;;;;;;;;18.31;42.07;98815.63;4977721;28;19924;-82
2022/12/07 09:43:02;;;;;;;;;;;;;;;18.37;41.79;98812.31;4976724;28;20446;-80
2022/12/07 09:45:34;;;;;;;;;;;;;;;18.62;41.33;98805.22;4977625;28;20355;-80
2022/12/07 09:48:00;;;;;;;;;;;;;;;18.57;41.31;98803.06;4977440;28;19918;-81
2022/12/07 09:50:26;;;;;;;;;;;;;;;18.59;41.44;98805.53;4977465;28;20025;-79
2022/12/07 09:52:51;;;;;;;;;;;;;;;18.62;41.29;98803.38;4994869;28;19918;-82
2022/12/07 09:55:21;;;;;;;;;;;;;;;18.55;41.67;98796.28;4977198;28;20435;-80
2022/12/07 09:57:46;;;;;;;;;;;;;;;18.23;41.98;98801.44;4977096;28;19925;-80
2022/12/07 10:00:15;;;;;;;;;;;;;;;18.18;42.23;98806.38;4960772;28;19918;-80
2022/12/07 10:02:42;;;;;;;;;;;;;;;18.04;42.46;98793.81;4960696;28;19918;-79
2022/12/07 10:05:10;;;;;;;;;;;;;;;17.96;42.73;98791.16;4977311;28;19918;-80
2022/12/07 10:07:36;;;;;;;;;;;;;;;17.91;42.73;98789.00;4960024;28;19928;-81
2022/12/07 10:10:06;;;;;;;;;;;;;;;17.77;42.87;98793.06;4976820;28;20004;-82
2022/12/07 10:12:31;;;;;;;;;;;;;;;17.57;43.41;98791.69;4976690;28;19918;-82
2022/12/07 10:15:01;;;;;;;;;;;;;;;17.45;43.75;98780.63;4960740;28;19918;-81
2022/12/07 10:17:31;;;;;;;;;;;;;;;17.39;43.98;98789.19;4976886;28;19949;-81
2022/12/07 10:20:12;;;;;;;;;;;;;;;17.40;44.40;98790.84;4977779;28;19924;-81
2022/12/07 10:22:37;;;;;;;;;;;;;;;17.52;44.22;98793.03;4993868;28;20028;-80
2022/12/07 10:25:09;;;;;;;;;;;;;;;17.61;43.97;98782.50;4976378;28;20396;-80
2022/12/07 10:27:34;;;;;;;;;;;;;;;17.62;44.08;98786.78;4960640;28;20008;-79
2022/12/07 10:30:00;;;;;;;;;;;;;;;17.75;43.62;98778.41;4960605;28;20040;-79
2022/12/07 10:32:31;;;;;;;;;;;;;;;17.96;43.01;98770.84;4960817;28;20380;-81
2022/12/07 10:35:15;;;;;;;;;;;;;;;18.52;42.48;98775.50;4976605;28;19925;-80
2022/12/07 10:37:40;;;;;;;;;;;;;;;18.66;42.15;98766.88;4977161;28;19918;-81
2022/12/07 10:40:10;;;;;;;;;;;;;;;18.75;41.89;98765.84;4960408;28;19925;-80
2022/12/07 10:42:36;;;;;;;;;;;;;;;18.73;41.91;98759.91;4976386;28;19926;-81
2022/12/07 10:45:15;;;;;;;;;;;;;;;18.71;41.90;98758.44;4976554;28;20332;-80
2022/12/07 10:47:51;;;;;;;;;;;;;;;18.70;41.96;98762.06;4960073;28;20384;-81
2022/12/07 10:50:35;;;;;;;;;;;;;;;18.79;42.04;98755.78;4960134;28;19922;-80
2022/12/07 10:53:19;;;;;;;;;;;;;;;18.81;42.01;98757.25;4976077;28;19918;-81
2022/12/07 10:55:50;;;;;;;;;;;;;;;18.71;42.06;98747.88;4993350;28;20008;-81
2022/12/07 10:58:23;;;;;;;;;;;;;;;18.87;41.82;98745.19;4977057;28;19990;-81
2022/12/07 11:00:52;;;;;;;;;;;;;;;19.31;41.18;98734.09;4963146;28;20041;-81
2022/12/07 11:03:21;;;;;;;;;;;;;;;19.52;40.65;98738.78;4977968;28;19918;-80
2022/12/07 11:06:01;;;;;;;;;;;;;;;19.55;40.69;98736.81;4960154;28;19917;-81
2022/12/07 11:08:45;;;;;;;;;;;;;;;19.47;40.59;98738.50;4976284;28;19918;-81
2022/12/07 11:11:18;;;;;;;;;;;;;;;19.48;40.66;98736.66;4976473;28;19918;-80
2022/12/07 11:13:56;;;;;;;;;;;;;;;19.60;40.57;98729.97;4960329;28;19917;-81
2022/12/07 11:16:24;;;;;;;;;;;;;;;19.50;40.85;98724.09;4993808;28;20419;-81
2022/12/07 11:19:08;;;;;;;;;;;;;;;19.27;41.09;98718.75;4993357;28;19918;-80
2022/12/07 11:21:41;;;;;;;;;;;;;;;19.19;41.09;98719.59;4975949;28;19918;-80
2022/12/07 11:24:10;;;;;;;;;;;;;;;19.11;41.15;98714.38;4959996;28;20420;-80
2022/12/07 11:26:54;;;;;;;;;;;;;;;19.09;41.05;98711.06;4975818;28;19922;-79
2022/12/07 11:29:34;;;;;;;;;;;;;;;18.91;41.37;98711.28;4993554;28;20303;-80
2022/12/07 11:32:11;;;;;;;;;;;;;;;18.89;41.40;98708.00;4993704;28;19949;-80
2022/12/07 11:34:42;;;;;;;;;;;;;;;18.85;41.15;98704.88;4976242;28;19917;-82
2022/12/07 11:37:12;;;;;;;;;;;;;;;18.80;40.93;98704.53;4975727;28;19918;-82
2022/12/07 11:39:40;;;;;;;;;;;;;;;18.60;40.87;98704.91;4976512;28;20269;-81
2022/12/07 11:42:25;;;;;;;;;;;;;;;18.46;41.46;98700.34;4959238;28;20016;-79
2022/12/07 11:44:55;;;;;;;;;;;;;;;18.26;41.86;98705.16;4962857;28;19926;-81
2022/12/07 11:47:30;;;;;;;;;;;;;;;18.01;42.34;98696.41;4963773;28;20297;-81
2022/12/07 11:50:17;;;;;;;;;;;;;;;17.81;42.61;98688.81;4963123;28;19988;-81
2022/12/07 11:52:49;;;;;;;;;;;;;;;17.63;43.10;98688.13;4979530;28;19933;-82
2022/12/07 11:55:29;;;;;;;;;;;;;;;17.45;43.27;98688.28;4979536;28;20000;-80
2022/12/07 11:57:58;;;;;;;;;;;;;;;17.28;43.58;98684.75;4962986;28;20305;-82
2022/12/07 12:00:23;;;;;;;;;;;;;;;17.13;43.82;98677.47;4963334;28;19918;-80
2022/12/07 12:02:55;;;;;;;;;;;;;;;16.98;44.25;98686.97;4978988;28;19917;-80
2022/12/07 12:05:23;;;;;;;;;;;;;;;16.79;44.89;98683.59;4979244;28;19949;-81
2022/12/07 12:07:52;;;;;;;;;;;;;;;16.68;45.17;98675.94;4979432;28;20008;-80
2022/12/07 12:10:19;;;;;;;;;;;;;;;16.54;45.46;98680.03;4979267;28;19917;-80
2022/12/07 12:13:03;;;;;;;;;;;;;;;16.43;45.75;98672.34;4979687;28;19918;-80
2022/12/07 12:15:32;;;;;;;;;;;;;;;16.32;46.12;98667.34;4996621;28;19961;-80
2022/12/07 12:18:04;;;;;;;;;;;;;;;16.19;46.36;98666.00;4962794;28;19918;-83
2022/12/07 12:20:35;;;;;;;;;;;;;;;16.11;46.42;98673.81;4962774;28;19925;-80
2022/12/07 12:23:27;;;;;;;;;;;;;;;16.06;46.24;98670.81;4962810;28;19944;-80
2022/12/07 12:25:53;;;;;;;;;;;;;;;16.02;46.26;98666.81;4917032;29;19919;-81
2022/12/07 12:28:20;;;;;;;;;;;;;;;15.99;46.53;98661.91;4901308;29;20382;-83
2022/12/07 12:30:45;;;;;;;;;;;;;;;15.95;46.54;98668.44;4901536;29;19926;-81
2022/12/07 12:33:15;;;;;;;;;;;;;;;15.86;46.67;98660.47;4901886;29;20294;-79
2022/12/07 12:35:40;;;;;;;;;;;;;;;15.75;46.92;98658.06;4901723;29;19919;-80
2022/12/07 12:38:24;;;;;;;;;;;;;;;15.66;47.13;98657.16;4902062;29;19927;-80
2022/12/07 12:40:49;;;;;;;;;;;;;;;15.54;47.28;98655.72;4916896;29;19919;-81
2022/12/07 12:43:33;;;;;;;;;;;;;;;15.44;47.50;98655.81;4900740;29;19941;-81
2022/12/07 12:46:16;;;;;;;;;;;;;;;15.33;47.83;98659.47;4901028;29;20450;-81
2022/12/07 12:48:42;;;;;;;;;;;;;;;15.26;47.91;98660.22;4900609;29;19915;-82
2022/12/07 12:51:42;;;;;;;;;;;;;;;15.20;47.96;98662.47;4901304;29;19974;-80
2022/12/07 12:54:13;;;;;;;;;;;;;;;15.18;48.10;98653.91;4879143;29;20361;-80
2022/12/07 12:56:41;;;;;;;;;;;;;;;15.15;48.27;98650.78;4862673;29;19926;-82